Time;durP1;ratioP1;P1;durP2;ratioP2;P2;SDS_P1;SDS_P2;PMS_P1;PMS_P2;Temp;Humidity;BMP_temperature;BMP_pressure;BME280_temperature;BME280_humidity;BME280_pressure;Samples;Min_cycle;Max_cycle;Signal;HPM_P1;HPM_P2
2021/04/04 00:02:05;;;;;;;39.92;22.30;;;;;;;2.08;76.40;97376.56;1761475;81;25733;-79
2021/04/04 00:04:33;;;;;;;43.25;25.50;;;;;;;2.08;76.33;97381.40;1761589;81;25676;-79
2021/04/04 00:07:00;;;;;;;47.98;27.93;;;;;;;2.11;76.36;97382.91;1761532;81;28405;-79
2021/04/04 00:09:28;;;;;;;45.80;23.92;;;;;;;2.12;76.33;97380.09;1761465;81;25763;-79
2021/04/04 00:11:55;;;;;;;39.60;24.18;;;;;;;2.13;76.28;97382.27;1761501;81;25730;-80
2021/04/04 00:14:22;;;;;;;44.75;23.40;;;;;;;2.14;76.23;97380.78;1761510;81;26372;-79
2021/04/04 00:16:50;;;;;;;38.60;22.15;;;;;;;2.14;76.16;97384.77;1761466;81;25802;-79
2021/04/04 00:19:17;;;;;;;37.05;22.90;;;;;;;2.14;76.05;97390.59;1761659;81;28452;-79
2021/04/04 00:21:45;;;;;;;37.70;22.67;;;;;;;2.13;76.05;97389.76;1735476;81;26082;-79
2021/04/04 00:24:13;;;;;;;39.13;21.80;;;;;;;2.14;76.03;97392.77;1731209;82;25681;-79
2021/04/04 00:26:40;;;;;;;41.80;23.55;;;;;;;2.15;76.03;97383.78;1742318;81;26417;-79
2021/04/04 00:29:08;;;;;;;40.10;23.47;;;;;;;2.16;76.06;97389.95;1731339;82;26296;-79
2021/04/04 00:31:36;;;;;;;40.15;24.23;;;;;;;2.15;76.10;97396.27;1731002;82;27495;-78
2021/04/04 00:34:05;;;;;;;39.60;22.93;;;;;;;2.14;76.08;97403.91;1731283;82;26051;-79
2021/04/04 00:36:33;;;;;;;42.98;24.27;;;;;;;2.09;76.08;97396.88;1731232;82;25784;-79
2021/04/04 00:39:00;;;;;;;47.43;25.45;;;;;;;2.02;76.15;97395.86;1731298;82;25823;-79
2021/04/04 00:41:28;;;;;;;41.73;24.72;;;;;;;1.97;76.21;97407.46;1731329;82;25736;-79
2021/04/04 00:43:55;;;;;;;43.75;26.97;;;;;;;1.96;76.19;97405.79;1731096;82;27498;-78
2021/04/04 00:46:22;;;;;;;46.70;26.00;;;;;;;1.98;76.23;97407.80;1744961;81;26132;-79
2021/04/04 00:48:50;;;;;;;50.15;28.10;;;;;;;2.00;76.23;97409.32;1750526;81;25739;-79
2021/04/04 00:51:17;;;;;;;46.63;27.45;;;;;;;2.02;76.22;97409.17;1750631;81;25809;-80
2021/04/04 00:53:45;;;;;;;43.05;27.20;;;;;;;2.04;76.21;97400.53;1750478;81;25770;-80
2021/04/04 00:56:13;;;;;;;42.48;25.95;;;;;;;2.03;76.17;97403.69;1750566;81;27539;-79
2021/04/04 00:58:41;;;;;;;42.95;24.55;;;;;;;2.03;76.13;97399.70;1750351;81;25780;-80
2021/04/04 01:01:09;;;;;;;45.90;25.10;;;;;;;2.03;76.08;97401.03;1771537;80;25795;-79
2021/04/04 01:03:37;;;;;;;42.85;25.35;;;;;;;2.04;76.09;97404.53;1781502;80;25726;-79
2021/04/04 01:06:07;;;;;;;39.42;24.47;;;;;;;2.04;76.07;97402.70;1781454;80;25671;-79
2021/04/04 01:08:39;;;;;;;42.83;25.27;;;;;;;2.06;76.07;97405.17;1781503;80;27493;-79
2021/04/04 01:11:08;;;;;;;43.17;25.90;;;;;;;2.04;75.99;97405.86;1781494;80;25767;-79
2021/04/04 01:13:46;;;;;;;38.95;24.30;;;;;;;2.03;76.01;97403.69;1781491;80;25775;-80
2021/04/04 01:16:28;;;;;;;43.17;26.65;;;;;;;2.00;75.97;97408.48;1781187;80;26251;-80
2021/04/04 01:19:22;;;;;;;42.40;24.75;;;;;;;1.96;76.10;97408.45;1781405;80;25767;-80
2021/04/04 01:21:58;;;;;;;47.50;25.70;;;;;;;1.93;76.17;97406.12;1752824;80;27723;-80
2021/04/04 01:24:55;;;;;;;45.75;26.05;;;;;;;1.92;76.30;97413.28;1750312;81;25680;-80
2021/04/04 01:27:28;;;;;;;37.98;22.77;;;;;;;1.89;76.29;97408.76;1750532;81;25785;-79
2021/04/04 01:29:57;;;;;;;34.78;21.25;;;;;;;1.84;76.25;97411.04;1762080;80;25811;-79
2021/04/04 01:32:25;;;;;;;40.05;22.48;;;;;;;1.80;76.28;97417.20;1781526;80;25699;-79
2021/04/04 01:34:52;;;;;;;39.10;21.70;;;;;;;1.75;76.35;97412.33;1781409;80;27672;-80
2021/04/04 01:37:21;;;;;;;34.88;21.40;;;;;;;1.77;76.38;97413.01;1777995;80;26260;-80
2021/04/04 01:39:52;;;;;;;36.28;21.35;;;;;;;1.78;76.38;97410.69;1757377;80;36169;-80
2021/04/04 01:42:21;;;;;;;36.38;20.82;;;;;;;1.78;76.37;97411.19;1750487;81;25692;-81
2021/04/04 01:44:50;;;;;;;39.23;21.23;;;;;;;1.80;76.37;97408.72;1750594;81;25774;-80
2021/04/04 01:47:20;;;;;;;34.30;21.60;;;;;;;1.85;76.31;97414.05;1732004;81;28455;-80
2021/04/04 01:49:52;;;;;;;34.15;21.35;;;;;;;1.88;76.32;97415.91;1731148;82;25727;-77
2021/04/04 01:52:21;;;;;;;36.03;20.77;;;;;;;1.92;76.29;97413.77;1732060;81;25669;-77
2021/04/04 01:54:49;;;;;;;34.03;21.90;;;;;;;1.95;76.24;97416.09;1761150;79;26383;-79
2021/04/04 01:57:18;;;;;;;32.03;18.95;;;;;;;1.97;76.24;97414.12;1761533;81;25848;-79
2021/04/04 01:59:47;;;;;;;34.43;19.70;;;;;;;1.97;76.26;97410.13;1761601;81;27506;-79
2021/04/04 02:02:15;;;;;;;32.93;19.98;;;;;;;1.96;76.21;97419.10;1761366;81;26405;-79
2021/04/04 02:04:43;;;;;;;35.05;19.42;;;;;;;1.97;76.19;97420.77;1761477;81;25788;-79
2021/04/04 02:07:14;;;;;;;32.00;19.82;;;;;;;1.98;76.20;97421.11;1761472;81;25871;-80
2021/04/04 02:09:43;;;;;;;31.87;19.50;;;;;;;1.98;76.19;97421.11;1761611;81;25912;-80
2021/04/04 02:12:12;;;;;;;28.20;18.15;;;;;;;1.98;76.19;97424.61;1761473;81;27503;-80
2021/04/04 02:14:42;;;;;;;33.78;18.95;;;;;;;1.98;76.14;97424.61;1761497;81;25672;-79
2021/04/04 02:17:10;;;;;;;32.83;18.45;;;;;;;1.98;76.13;97425.11;1761497;81;25704;-80
2021/04/04 02:19:39;;;;;;;33.25;19.77;;;;;;;1.99;76.15;97423.63;1761488;81;25582;-79
2021/04/04 02:22:06;;;;;;;34.48;20.52;;;;;;;2.01;76.18;97423.47;1755331;81;25637;-80
2021/04/04 02:24:34;;;;;;;37.88;20.65;;;;;;;2.04;76.17;97425.83;1759480;81;27501;-80
2021/04/04 02:27:03;;;;;;;30.55;19.30;;;;;;;2.05;76.16;97422.98;1731219;82;26081;-81
2021/04/04 02:29:31;;;;;;;28.23;17.73;;;;;;;2.08;76.20;97424.50;1731281;81;25413;-80
2021/04/04 02:32:03;;;;;;;29.37;18.40;;;;;;;2.11;76.18;97428.19;1731314;81;26415;-80
2021/04/04 02:34:40;;;;;;;29.07;17.65;;;;;;;2.10;76.10;97434.00;1731397;82;25669;-80
2021/04/04 02:37:13;;;;;;;30.02;19.35;;;;;;;1.96;75.95;97429.25;1755566;81;28431;-80
2021/04/04 02:39:52;;;;;;;30.75;19.50;;;;;;;1.74;75.92;97427.95;1739900;81;26089;-80
2021/04/04 02:42:25;;;;;;;30.90;19.32;;;;;;;1.68;76.28;97431.75;1755808;81;25918;-79
2021/04/04 02:44:56;;;;;;;31.77;18.87;;;;;;;1.74;76.49;97429.78;1761538;81;26080;-77
2021/04/04 02:47:47;;;;;;;32.98;20.23;;;;;;;1.77;76.58;97434.80;1733906;81;25918;-79
2021/04/04 02:50:16;;;;;;;33.40;20.68;;;;;;;1.81;76.59;97428.98;1695075;84;26915;-79
2021/04/04 02:52:44;;;;;;;34.80;20.70;;;;;;;1.88;76.56;97435.03;1689400;84;25383;-80
2021/04/04 02:55:14;;;;;;;35.58;20.52;;;;;;;1.94;76.48;97439.72;1695168;83;25836;-79
2021/04/04 02:57:54;;;;;;;37.88;21.68;;;;;;;2.03;76.39;97442.80;1873463;75;35292;-81
2021/04/04 03:00:23;;;;;;;36.45;21.17;;;;;;;2.01;76.34;97431.45;1852656;77;25748;-81
2021/04/04 03:02:54;;;;;;;38.83;22.80;;;;;;;2.02;76.27;97430.47;1852737;77;27463;-82
2021/04/04 03:05:25;;;;;;;36.15;22.00;;;;;;;2.02;76.22;97433.13;1852593;77;25564;-80
2021/04/04 03:07:55;;;;;;;35.05;22.65;;;;;;;2.03;76.18;97429.48;1819779;77;25809;-81
2021/04/04 03:10:23;;;;;;;31.35;20.52;;;;;;;2.04;76.18;97431.16;1852741;77;25621;-82
2021/04/04 03:12:51;;;;;;;31.23;20.43;;;;;;;2.05;76.21;97431.49;1852760;77;26311;-82
2021/04/04 03:15:21;;;;;;;35.75;22.77;;;;;;;2.04;76.17;97433.32;1852780;77;27557;-80
2021/04/04 03:17:51;;;;;;;30.97;20.40;;;;;;;2.06;76.15;97433.13;1852629;77;25738;-81
2021/04/04 03:20:20;;;;;;;35.80;22.67;;;;;;;2.06;76.11;97431.80;1852521;77;25973;-81
2021/04/04 03:22:50;;;;;;;31.25;21.65;;;;;;;2.07;76.08;97432.98;1845462;77;25818;-81
2021/04/04 03:25:19;;;;;;;36.28;22.15;;;;;;;2.05;76.06;97430.16;1852837;77;25733;-81
2021/04/04 03:27:48;;;;;;;36.77;22.00;;;;;;;2.06;76.11;97431.80;1852769;77;27485;-81
2021/04/04 03:30:42;;;;;;;38.55;22.75;;;;;;;2.05;76.10;97435.48;1850017;77;26177;-79
2021/04/04 03:33:07;;;;;;;39.55;23.45;;;;;;;2.04;76.12;97442.64;1825277;77;26533;-80
2021/04/04 03:35:37;;;;;;;60.98;32.53;;;;;;;2.05;76.12;97436.81;1819194;78;25687;-81
2021/04/04 03:38:08;;;;;;;45.48;24.87;;;;;;;2.02;76.06;97437.96;1819265;78;25639;-80
2021/04/04 03:40:37;;;;;;;41.92;25.23;;;;;;;2.00;76.10;97445.76;1819510;78;27468;-80
2021/04/04 03:43:09;;;;;;;40.35;24.12;;;;;;;1.87;76.12;97444.00;1819170;78;25754;-80
2021/04/04 03:45:38;;;;;;;38.78;23.70;;;;;;;1.86;76.28;97448.98;1819339;78;26327;-80
2021/04/04 03:48:07;;;;;;;39.20;24.67;;;;;;;1.89;76.35;97450.85;1851944;77;25767;-80
2021/04/04 03:50:38;;;;;;;39.15;24.27;;;;;;;1.90;76.32;97452.52;1852650;77;25844;-81
2021/04/04 03:53:06;;;;;;;42.30;25.90;;;;;;;1.93;76.35;97452.72;1852650;77;28617;-80
2021/04/04 03:55:35;;;;;;;44.55;25.50;;;;;;;1.94;76.33;97445.03;1826164;77;26226;-81
2021/04/04 03:58:04;;;;;;;45.00;27.02;;;;;;;1.96;76.30;97451.05;1821020;78;26453;-79
2021/04/04 04:00:33;;;;;;;40.38;26.07;;;;;;;1.92;76.27;97445.22;1821027;78;25715;-79
2021/04/04 04:03:02;;;;;;;44.80;26.85;;;;;;;1.93;76.24;97452.22;1821026;78;25771;-79
2021/04/04 04:05:30;;;;;;;42.38;25.43;;;;;;;1.95;76.24;97452.03;1821052;77;27665;-79
2021/04/04 04:08:00;;;;;;;42.67;26.45;;;;;;;1.95;76.27;97454.20;1820581;78;26262;-79
2021/04/04 04:10:28;;;;;;;43.87;26.27;;;;;;;1.97;76.26;97454.89;1820309;78;25809;-79
2021/04/04 04:12:59;;;;;;;48.52;28.25;;;;;;;1.98;76.21;97455.73;1820362;78;26178;-78
2021/04/04 04:15:28;;;;;;;44.58;26.37;;;;;;;1.97;76.16;97452.23;1820474;78;25671;-79
2021/04/04 04:17:59;;;;;;;42.15;26.23;;;;;;;1.97;76.10;97454.89;1820327;77;27762;-78
2021/04/04 04:20:28;;;;;;;40.67;25.72;;;;;;;1.96;76.04;97457.70;1820807;77;25914;-79
2021/04/04 04:22:59;;;;;;;40.28;25.60;;;;;;;1.93;76.03;97451.38;1838233;77;26231;-79
2021/04/04 04:25:28;;;;;;;50.30;29.12;;;;;;;1.93;76.00;97458.04;1855626;77;25732;-79
2021/04/04 04:27:58;;;;;;;44.38;27.17;;;;;;;1.92;76.01;97457.20;1855723;77;26170;-79
2021/04/04 04:30:26;;;;;;;42.65;26.35;;;;;;;1.92;76.03;97455.87;1855624;77;28539;-79
2021/04/04 04:32:58;;;;;;;48.55;27.60;;;;;;;1.92;76.12;97458.53;1855573;77;25831;-79
2021/04/04 04:35:27;;;;;;;47.35;27.22;;;;;;;1.92;76.12;97463.02;1855852;77;25737;-79
2021/04/04 04:37:56;;;;;;;42.67;27.05;;;;;;;1.92;76.09;97464.35;1855519;77;25804;-78
2021/04/04 04:40:26;;;;;;;45.58;27.17;;;;;;;1.85;76.10;97464.61;1855624;76;25812;-79
2021/04/04 04:42:57;;;;;;;42.38;26.42;;;;;;;1.85;76.13;97464.61;1855586;77;27449;-78
2021/04/04 04:45:35;;;;;;;43.83;26.33;;;;;;;1.87;76.13;97467.96;1855607;77;25734;-79
2021/04/04 04:48:03;;;;;;;41.28;26.48;;;;;;;1.87;76.08;97466.62;1855562;77;26234;-79
2021/04/04 04:50:31;;;;;;;44.25;26.00;;;;;;;1.89;76.06;97467.31;1855466;77;25697;-79
2021/04/04 04:53:00;;;;;;;42.00;26.23;;;;;;;1.90;76.04;97477.81;1855541;77;25826;-78
2021/04/04 04:55:28;;;;;;;41.13;25.75;;;;;;;1.92;75.97;97478.99;1855409;77;27549;-79
2021/04/04 04:57:56;;;;;;;40.15;25.35;;;;;;;1.93;75.94;97479.34;1846040;76;25657;-79
2021/04/04 05:00:24;;;;;;;47.53;26.00;;;;;;;1.93;75.89;97478.00;1843059;77;26322;-79
2021/04/04 05:02:52;;;;;;;44.35;26.80;;;;;;;1.92;75.83;97485.16;1842976;77;25869;-79
2021/04/04 05:05:21;;;;;;;43.08;24.77;;;;;;;1.94;75.86;97488.96;1843213;77;25902;-80
2021/04/04 05:07:50;;;;;;;42.38;24.85;;;;;;;1.96;75.80;97492.31;1843069;77;28458;-80
2021/04/04 05:10:19;;;;;;;40.05;25.32;;;;;;;1.97;75.79;97491.33;1808247;77;25734;-80
2021/04/04 05:12:56;;;;;;;39.65;24.60;;;;;;;1.99;75.78;97492.01;1843024;77;26520;-80
2021/04/04 05:15:26;;;;;;;44.05;24.57;;;;;;;2.02;75.79;97485.05;1843000;77;26233;-80
2021/04/04 05:17:54;;;;;;;38.83;23.57;;;;;;;2.07;75.76;97489.39;1843081;77;25733;-80
2021/04/04 05:20:23;;;;;;;37.88;23.42;;;;;;;2.07;75.70;97498.71;1842721;77;27484;-79
2021/04/04 05:22:51;;;;;;;40.85;24.23;;;;;;;2.08;75.67;97499.05;1824884;77;26362;-78
2021/04/04 05:25:19;;;;;;;42.83;23.22;;;;;;;2.11;75.65;97502.25;1829426;77;25735;-79
2021/04/04 05:27:46;;;;;;;39.05;21.70;;;;;;;2.11;75.64;97491.59;1813700;79;25890;-80
2021/04/04 05:30:15;;;;;;;41.13;22.67;;;;;;;2.14;75.54;97498.45;1813620;79;25848;-80
2021/04/04 05:32:48;;;;;;;36.42;21.68;;;;;;;2.15;75.54;97504.11;1813631;78;27553;-79
2021/04/04 05:35:24;;;;;;;34.23;21.77;;;;;;;2.19;75.52;97505.45;1813555;79;26531;-80
2021/04/04 05:37:53;;;;;;;35.58;22.20;;;;;;;2.23;75.48;97505.98;1813519;79;26295;-79
2021/04/04 05:40:30;;;;;;;41.53;22.50;;;;;;;2.24;75.35;97504.50;1813605;78;26238;-80
2021/04/04 05:43:15;;;;;;;34.70;21.77;;;;;;;2.27;75.24;97504.19;1813628;78;25808;-80
2021/04/04 05:45:50;;;;;;;43.35;22.75;;;;;;;2.30;75.15;97497.20;1813674;78;27942;-80
2021/04/04 05:48:37;;;;;;;38.80;23.30;;;;;;;2.34;75.15;97497.23;1809065;79;25762;-80
2021/04/04 05:51:34;;;;;;;38.35;22.90;;;;;;;2.41;75.21;97500.95;1809830;79;26234;-79
2021/04/04 05:54:48;;;;;;;38.17;23.57;;;;;;;2.47;75.06;97505.63;1809922;79;25757;-80
2021/04/04 05:57:27;;;;;;;35.00;21.80;;;;;;;2.47;74.81;97505.63;1809667;79;25738;-80
2021/04/04 06:00:10;;;;;;;34.10;22.05;;;;;;;2.48;74.77;97507.30;1809848;79;28793;-80
2021/04/04 06:03:01;;;;;;;35.08;21.93;;;;;;;2.49;74.62;97519.64;1810233;77;25753;-79
2021/04/04 06:06:07;;;;;;;33.58;22.02;;;;;;;2.51;74.54;97513.66;1806501;79;25653;-80
2021/04/04 06:09:08;;;;;;;31.20;21.00;;;;;;;2.54;74.54;97513.31;1774476;79;25782;-79
2021/04/04 06:12:20;;;;;;;38.98;21.82;;;;;;;2.57;74.49;97518.00;1809933;79;25626;-79
2021/04/04 06:15:02;;;;;;;22.02;13.78;;;;;;;2.58;74.25;97523.66;1810119;79;27545;-79
2021/04/04 06:17:44;;;;;;;33.38;21.62;;;;;;;2.54;74.10;97522.64;1809875;79;26045;-78
2021/04/04 06:20:46;;;;;;;29.27;18.23;;;;;;;2.55;74.09;97527.48;1816112;77;25697;-79
2021/04/04 06:23:30;;;;;;;31.02;18.80;;;;;;;2.59;73.98;97524.84;1835843;77;25683;-80
2021/04/04 06:26:39;;;;;;;30.97;18.98;;;;;;;2.62;73.74;97530.36;1825727;77;25810;-80
2021/04/04 06:29:21;;;;;;;28.75;18.80;;;;;;;2.65;73.58;97531.39;1796320;77;28788;-80
2021/04/04 06:32:08;;;;;;;30.08;18.30;;;;;;;2.66;73.41;97525.87;1813551;79;27759;-79
2021/04/04 06:34:43;;;;;;;27.80;18.27;;;;;;;2.64;73.27;97521.22;1792880;79;25703;-80
2021/04/04 06:38:05;;;;;;;30.02;20.40;;;;;;;2.65;73.17;97520.72;1813541;79;25727;-80
2021/04/04 06:40:53;;;;;;;47.53;27.10;;;;;;;2.69;73.47;97518.06;1813619;79;25768;-80
2021/04/04 06:43:32;;;;;;;28.12;18.62;;;;;;;2.69;73.32;97520.72;1831485;77;27591;-80
2021/04/04 06:46:08;;;;;;;27.45;18.20;;;;;;;2.72;73.06;97512.42;1820681;77;25662;-79
2021/04/04 06:49:08;;;;;;;25.72;16.85;;;;;;;2.80;73.06;97515.11;1822554;77;25789;-80
2021/04/04 06:52:28;;;;;;;28.30;17.17;;;;;;;2.85;72.95;97522.14;1842239;77;25749;-80
2021/04/04 06:55:19;;;;;;;29.67;20.37;;;;;;;2.80;72.67;97515.95;1843008;77;25645;-80
2021/04/04 06:58:26;;;;;;;29.37;22.30;;;;;;;2.73;72.64;97521.59;1830557;77;27557;-80
2021/04/04 07:01:14;;;;;;;29.15;19.90;;;;;;;2.57;72.58;97526.83;1816247;77;25339;-79
2021/04/04 07:03:50;;;;;;;28.50;18.80;;;;;;;2.53;72.82;97525.00;1830631;77;25792;-79
2021/04/04 07:06:32;;;;;;;31.80;19.80;;;;;;;2.49;72.91;97523.63;1823438;77;25707;-79
2021/04/04 07:09:17;;;;;;;34.40;21.55;;;;;;;2.51;72.87;97526.14;1821562;77;25701;-79
2021/04/04 07:12:21;;;;;;;30.77;18.70;;;;;;;2.45;72.82;97526.27;1820381;77;26797;-80
2021/04/04 07:18:04;;;;;;;29.45;17.30;;;;;;;2.61;72.55;97530.02;1867096;76;35333;-78
2021/04/04 07:20:57;;;;;;;29.15;17.25;;;;;;;2.63;72.53;97534.20;1846725;77;25815;-78
2021/04/04 07:23:59;;;;;;;34.38;19.05;;;;;;;2.66;72.27;97527.20;1836285;77;27682;-78
2021/04/04 07:26:43;;;;;;;29.70;17.45;;;;;;;2.69;72.37;97530.05;1854160;77;25785;-78
2021/04/04 07:29:46;;;;;;;21.12;15.63;;;;;;;2.81;72.19;97525.62;1857847;77;25619;-79
2021/04/04 07:32:19;;;;;;;22.90;14.75;;;;;;;2.98;71.90;97527.86;1857782;77;26050;-79
2021/04/04 07:35:12;;;;;;;19.20;12.45;;;;;;;3.15;72.04;97532.24;1857915;77;25798;-79
2021/04/04 07:38:04;;;;;;;21.55;13.55;;;;;;;3.32;71.75;97533.14;1857996;77;28916;-79
2021/04/04 07:41:08;;;;;;;20.88;14.18;;;;;;;3.56;71.40;97531.02;1850125;77;25866;-78
2021/04/04 07:43:59;;;;;;;16.73;10.58;;;;;;;3.85;70.79;97530.06;1844119;77;25729;-78
2021/04/04 07:46:59;;;;;;;17.98;11.60;;;;;;;4.34;70.36;97535.38;1844051;77;26309;-79
2021/04/04 07:49:40;;;;;;;14.20;9.78;;;;;;;4.68;69.95;97531.13;1843984;77;25694;-79
2021/04/04 07:52:22;;;;;;;17.95;10.70;;;;;;;4.92;69.92;97537.74;1834396;77;27738;-78
2021/04/04 07:55:06;;;;;;;19.52;11.65;;;;;;;5.28;68.89;97534.58;1817551;78;25757;-78
2021/04/04 07:57:47;;;;;;;18.90;13.53;;;;;;;5.45;68.50;97541.49;1817439;78;25638;-79
2021/04/04 08:00:17;;;;;;;30.25;17.27;;;;;;;5.50;68.40;97535.62;1786046;78;25777;-79
2021/04/04 08:03:16;;;;;;;29.27;16.17;;;;;;;5.77;68.56;97542.66;1817505;78;25696;-77
2021/04/04 08:05:47;;;;;;;32.88;19.17;;;;;;;6.03;68.29;97530.78;1817124;78;27502;-78
2021/04/04 08:08:29;;;;;;;28.60;18.00;;;;;;;5.90;67.63;97542.09;1817497;78;25740;-78
2021/04/04 08:11:04;;;;;;;28.15;17.55;;;;;;;5.66;67.29;97544.91;1815515;78;25901;-78
2021/04/04 08:13:57;;;;;;;25.52;16.17;;;;;;;5.41;66.99;97547.73;1817105;78;25875;-78
2021/04/04 08:16:52;;;;;;;29.55;17.67;;;;;;;5.27;66.80;97539.09;1817345;78;25948;-78
2021/04/04 08:19:20;;;;;;;26.73;16.62;;;;;;;5.16;66.73;97544.84;1816374;78;27501;-79
2021/04/04 08:22:06;;;;;;;32.40;19.77;;;;;;;5.02;66.53;97550.41;1848724;77;25733;-78
2021/04/04 08:24:42;;;;;;;36.85;22.02;;;;;;;4.92;66.73;97551.62;1841649;77;25282;-78
2021/04/04 08:27:15;;;;;;;29.60;16.57;;;;;;;4.53;66.65;97553.72;1854324;77;26571;-79
2021/04/04 08:29:47;;;;;;;28.62;16.25;;;;;;;4.27;66.53;97550.41;1857157;77;25775;-78
2021/04/04 08:32:20;;;;;;;28.62;13.53;;;;;;;4.10;66.31;97544.25;1786833;80;27778;-79
2021/04/04 08:35:01;;;;;;;15.00;9.83;;;;;;;4.69;66.66;97537.65;1873360;76;25619;-79
2021/04/04 08:37:37;;;;;;;15.72;10.32;;;;;;;5.54;66.01;97535.61;1852325;77;26111;-78
2021/04/04 08:40:11;;;;;;;17.07;10.65;;;;;;;6.33;65.42;97537.05;1847693;77;28545;-79
2021/04/04 08:42:39;;;;;;;17.40;10.63;;;;;;;6.56;64.61;97541.84;1840605;77;25833;-78
2021/04/04 08:45:36;;;;;;;20.02;12.33;;;;;;;6.47;64.19;97541.10;1827355;77;25667;-78
2021/04/04 08:48:05;;;;;;;20.68;13.13;;;;;;;6.03;63.78;97545.52;1819281;78;25740;-79
2021/04/04 08:50:35;;;;;;;24.05;15.20;;;;;;;5.29;63.32;97539.77;1819213;78;25840;-79
2021/04/04 08:53:31;;;;;;;17.35;10.15;;;;;;;4.95;63.37;97547.27;1819191;78;27537;-79
2021/04/04 08:56:00;;;;;;;23.32;12.35;;;;;;;4.74;63.50;97552.33;1832204;77;25673;-80
2021/04/04 08:58:42;;;;;;;19.62;13.18;;;;;;;4.37;63.52;97552.39;1800975;78;25864;-80
2021/04/04 09:01:38;;;;;;;15.63;10.55;;;;;;;4.24;63.83;97552.07;1830897;77;25749;-80
2021/04/04 09:04:08;;;;;;;18.23;10.70;;;;;;;4.28;63.99;97554.25;1832820;77;25670;-80
2021/04/04 09:06:41;;;;;;;13.83;8.43;;;;;;;4.33;63.83;97549.75;1831804;77;27498;-79
2021/04/04 09:09:22;;;;;;;17.80;8.85;;;;;;;4.47;63.42;97553.04;1819199;77;25705;-80
2021/04/04 09:11:52;;;;;;;15.78;9.73;;;;;;;4.76;63.47;97548.98;1797916;77;25377;-81
2021/04/04 09:14:23;;;;;;;15.85;10.40;;;;;;;5.50;63.83;97539.64;1836695;77;26108;-80
2021/04/04 09:16:57;;;;;;;16.10;9.85;;;;;;;6.27;64.26;97536.44;1837444;77;25738;-81
2021/04/04 09:19:34;;;;;;;14.87;10.00;;;;;;;7.07;63.85;97532.58;1833230;77;27518;-80
2021/04/04 09:22:20;;;;;;;15.98;10.03;;;;;;;7.67;63.60;97526.08;1837945;77;25745;-82
2021/04/04 09:24:57;;;;;;;12.65;8.73;;;;;;;7.94;61.63;97531.55;1833063;77;25735;-80
2021/04/04 09:27:29;;;;;;;10.63;6.97;;;;;;;7.78;60.55;97535.81;1835055;77;25687;-81
2021/04/04 09:29:58;;;;;;;13.63;8.20;;;;;;;7.50;59.62;97533.01;1833993;77;25345;-81
2021/04/04 09:32:42;;;;;;;10.00;5.92;;;;;;;7.42;59.39;97530.44;1809570;77;28408;-81
2021/04/04 09:35:19;;;;;;;8.20;5.17;;;;;;;7.13;58.98;97534.50;1807989;78;25850;-82
2021/04/04 09:37:49;;;;;;;15.30;6.95;;;;;;;6.36;57.75;97534.01;1808541;78;25364;-81
2021/04/04 09:40:19;;;;;;;10.25;5.90;;;;;;;5.94;58.05;97529.98;1807467;78;25751;-82
2021/04/04 09:42:47;;;;;;;9.23;6.45;;;;;;;5.83;58.47;97530.38;1806314;78;25958;-81
2021/04/04 09:45:22;;;;;;;17.00;9.93;;;;;;;5.97;59.00;97536.34;1803367;78;27492;-82
2021/04/04 09:47:52;;;;;;;11.50;6.78;;;;;;;6.03;59.23;97524.08;1804024;78;26148;-80
2021/04/04 09:50:24;;;;;;;10.15;6.17;;;;;;;6.11;59.44;97532.88;1806275;78;26087;-81
2021/04/04 09:52:54;;;;;;;10.48;6.80;;;;;;;6.19;59.43;97528.45;1793723;78;25632;-80
2021/04/04 09:55:24;;;;;;;10.70;6.42;;;;;;;6.31;59.84;97525.66;1789008;78;25745;-82
2021/04/04 09:57:55;;;;;;;9.28;6.80;;;;;;;6.76;59.99;97513.45;1789173;80;28488;-80
2021/04/04 10:00:41;;;;;;;10.03;6.78;;;;;;;6.87;59.33;97522.92;1789058;80;26276;-79
2021/04/04 10:03:14;;;;;;;14.60;7.83;;;;;;;6.82;58.25;97520.78;1806192;78;25695;-81
2021/04/04 10:05:47;;;;;;;13.28;7.75;;;;;;;6.77;57.76;97520.49;1804109;78;26072;-81
2021/04/04 10:08:21;;;;;;;12.82;7.05;;;;;;;6.49;57.15;97522.98;1803514;78;25863;-81
2021/04/04 10:10:58;;;;;;;8.50;6.22;;;;;;;6.20;57.53;97529.61;1804379;78;27532;-80
2021/04/04 10:13:29;;;;;;;10.65;6.92;;;;;;;6.20;57.92;97527.44;1806862;78;25756;-80
2021/04/04 10:16:00;;;;;;;11.35;7.03;;;;;;;6.09;57.94;97524.19;1806907;78;25868;-80
2021/04/04 10:18:28;;;;;;;15.15;9.13;;;;;;;5.96;58.18;97533.33;1805590;78;25690;-80
2021/04/04 10:20:58;;;;;;;15.05;8.05;;;;;;;5.84;58.09;97537.41;1814092;78;25686;-79
2021/04/04 10:23:34;;;;;;;11.78;7.65;;;;;;;5.85;58.12;97533.72;1821481;78;27548;-80
2021/04/04 10:26:08;;;;;;;12.53;6.97;;;;;;;5.84;58.17;97539.25;1821599;78;25753;-79
2021/04/04 10:28:54;;;;;;;12.18;7.95;;;;;;;5.73;58.30;97536.48;1821477;77;25750;-79
2021/04/04 10:31:25;;;;;;;13.43;7.05;;;;;;;5.58;58.21;97536.40;1821470;78;25800;-80
2021/04/04 10:34:04;;;;;;;11.25;6.90;;;;;;;5.48;58.40;97544.33;1820264;77;25740;-80
2021/04/04 10:36:31;;;;;;;11.95;7.00;;;;;;;5.39;58.09;97537.70;1810601;77;27555;-80
2021/04/04 10:38:59;;;;;;;9.85;6.58;;;;;;;5.31;58.10;97535.58;1809904;79;26064;-79
2021/04/04 10:41:36;;;;;;;12.63;7.00;;;;;;;5.25;58.38;97538.43;1810139;77;25693;-80
2021/04/04 10:44:05;;;;;;;15.45;6.85;;;;;;;5.16;58.22;97534.13;1818717;77;25736;-80
2021/04/04 10:46:35;;;;;;;10.88;6.05;;;;;;;5.10;58.26;97525.95;1823616;77;25748;-80
2021/04/04 10:49:04;;;;;;;11.22;6.45;;;;;;;5.14;58.30;97519.25;1822865;77;27562;-80
2021/04/04 10:51:32;;;;;;;11.95;6.37;;;;;;;5.13;58.40;97519.75;1820339;77;25715;-80
2021/04/04 10:54:01;;;;;;;10.58;6.78;;;;;;;5.27;58.15;97523.54;1822146;77;25750;-81
2021/04/04 10:56:30;;;;;;;11.33;7.20;;;;;;;5.33;58.13;97518.30;1823518;77;26200;-81
2021/04/04 10:58:59;;;;;;;9.55;6.67;;;;;;;5.45;58.07;97524.09;1821309;77;25822;-81
2021/04/04 11:01:31;;;;;;;11.65;7.35;;;;;;;5.54;58.21;97515.53;1833836;77;28440;-80
2021/04/04 11:03:58;;;;;;;10.10;6.33;;;;;;;5.74;58.12;97508.18;1842360;77;25668;-81
2021/04/04 11:06:26;;;;;;;8.50;6.72;;;;;;;5.87;57.66;97500.89;1843077;77;25800;-81
2021/04/04 11:08:54;;;;;;;11.85;7.05;;;;;;;5.89;57.90;97504.77;1843187;77;25945;-80
2021/04/04 11:11:22;;;;;;;23.98;14.43;;;;;;;6.01;57.84;97502.82;1843037;77;25270;-79
2021/04/04 11:13:54;;;;;;;14.00;7.37;;;;;;;5.92;57.70;97505.22;1843022;77;27469;-81
2021/04/04 11:16:25;;;;;;;14.33;7.20;;;;;;;5.93;57.72;97498.84;1843152;77;32171;-80
2021/04/04 11:18:56;;;;;;;12.18;7.83;;;;;;;5.95;57.82;97496.83;1843031;77;25736;-79
2021/04/04 11:21:38;;;;;;;10.40;7.12;;;;;;;5.86;57.84;97499.22;1842823;77;25767;-81
2021/04/04 11:24:15;;;;;;;12.43;6.95;;;;;;;5.79;57.85;97502.30;1820764;77;25722;-79
2021/04/04 11:26:53;;;;;;;11.53;7.03;;;;;;;5.80;58.14;97498.58;1820009;78;28462;-81
2021/04/04 11:29:24;;;;;;;12.65;7.30;;;;;;;5.90;58.21;97501.08;1827119;77;25870;-80
2021/04/04 11:34:38;;;;;;;11.12;7.30;;;;;;;6.02;57.49;97500.98;1859111;76;25249;-80
2021/04/04 11:37:15;;;;;;;13.03;8.35;;;;;;;6.01;57.70;97496.62;1839080;77;25826;-81
2021/04/04 11:40:05;;;;;;;17.57;9.43;;;;;;;5.84;57.63;97493.20;1847187;77;27542;-80
2021/04/04 11:42:32;;;;;;;13.88;8.25;;;;;;;5.87;57.99;97494.19;1826753;77;25738;-80
2021/04/04 11:45:00;;;;;;;13.53;9.38;;;;;;;6.02;57.68;97490.25;1819179;78;25777;-80
2021/04/04 11:47:27;;;;;;;12.18;9.98;;;;;;;5.92;57.61;97487.80;1777979;78;25847;-79
2021/04/04 11:49:57;;;;;;;14.80;9.80;;;;;;;5.81;57.59;97485.52;1819491;77;25717;-81
2021/04/04 11:52:30;;;;;;;48.95;22.42;;;;;;;5.67;57.62;97488.49;1819129;78;27559;-80
2021/04/04 11:54:59;;;;;;;15.25;8.73;;;;;;;5.61;57.72;97486.52;1819176;78;26032;-81
2021/04/04 11:57:31;;;;;;;29.60;15.75;;;;;;;5.47;57.72;97485.09;1833094;77;25734;-80
2021/04/04 12:00:20;;;;;;;12.68;9.00;;;;;;;5.42;58.12;97480.30;1828285;77;25725;-82
2021/04/04 12:02:59;;;;;;;16.95;8.98;;;;;;;5.41;58.31;97479.47;1819336;78;25789;-80
2021/04/04 12:05:33;;;;;;;14.03;6.00;;;;;;;5.36;58.61;97478.31;1813296;78;27496;-80
2021/04/04 12:08:01;;;;;;;11.30;5.67;;;;;;;5.36;58.14;97476.47;1819190;78;25683;-80
2021/04/04 12:10:32;;;;;;;9.38;5.67;;;;;;;5.33;58.03;97476.81;1819288;78;25928;-81